sensor_id;sensor_type;location;lat;lon;timestamp;temperature;humidity
2945;DHT22;1482;51.398;7.128;2022-10-12T00:01:22;8.60;1.00
2945;DHT22;1482;51.398;7.128;2022-10-12T00:03:48;8.60;1.00
2945;DHT22;1482;51.398;7.128;2022-10-12T00:06:17;8.50;1.00
2945;DHT22;1482;51.398;7.128;2022-10-12T00:08:43;8.50;1.00
2945;DHT22;1482;51.398;7.128;2022-10-12T00:11:13;8.40;1.00
2945;DHT22;1482;51.398;7.128;2022-10-12T00:13:39;8.40;1.00
2945;DHT22;1482;51.398;7.128;2022-10-12T00:16:06;8.40;1.00
2945;DHT22;1482;51.398;7.128;2022-10-12T00:18:33;8.40;1.00
2945;DHT22;1482;51.398;7.128;2022-10-12T00:21:10;8.30;1.00
2945;DHT22;1482;51.398;7.128;2022-10-12T00:23:37;8.30;1.00
2945;DHT22;1482;51.398;7.128;2022-10-12T00:26:05;8.30;1.00
2945;DHT22;1482;51.398;7.128;2022-10-12T00:28:31;8.30;1.00
2945;DHT22;1482;51.398;7.128;2022-10-12T00:30:57;8.20;1.00
2945;DHT22;1482;51.398;7.128;2022-10-12T00:33:22;8.20;1.00
2945;DHT22;1482;51.398;7.128;2022-10-12T00:35:48;8.20;1.00
2945;DHT22;1482;51.398;7.128;2022-10-12T00:38:14;8.20;1.00
2945;DHT22;1482;51.398;7.128;2022-10-12T00:40:39;8.20;1.00
2945;DHT22;1482;51.398;7.128;2022-10-12T00:43:25;8.20;1.00
2945;DHT22;1482;51.398;7.128;2022-10-12T00:45:50;8.20;1.00
2945;DHT22;1482;51.398;7.128;2022-10-12T00:48:16;8.10;1.00
2945;DHT22;1482;51.398;7.128;2022-10-12T00:50:42;8.10;1.00
2945;DHT22;1482;51.398;7.128;2022-10-12T00:53:17;8.10;1.00
2945;DHT22;1482;51.398;7.128;2022-10-12T00:55:49;8.10;1.00
2945;DHT22;1482;51.398;7.128;2022-10-12T00:58:16;8.10;1.00
2945;DHT22;1482;51.398;7.128;2022-10-12T01:00:41;8.10;1.00
2945;DHT22;1482;51.398;7.128;2022-10-12T01:03:09;8.10;1.00
2945;DHT22;1482;51.398;7.128;2022-10-12T01:05:38;8.10;1.50
2945;DHT22;1482;51.398;7.128;2022-10-12T01:08:04;8.10;7.80
2945;DHT22;1482;51.398;7.128;2022-10-12T01:10:30;8.10;22.00
2945;DHT22;1482;51.398;7.128;2022-10-12T01:12:56;8.20;26.30
2945;DHT22;1482;51.398;7.128;2022-10-12T01:15:23;8.20;13.60
2945;DHT22;1482;51.398;7.128;2022-10-12T01:20:56;8.30;1.00
2945;DHT22;1482;51.398;7.128;2022-10-12T01:32:08;8.40;1.00
2945;DHT22;1482;51.398;7.128;2022-10-12T01:34:53;8.30;1.00
2945;DHT22;1482;51.398;7.128;2022-10-12T01:40:35;8.20;1.00
2945;DHT22;1482;51.398;7.128;2022-10-12T01:43:02;8.10;1.00
2945;DHT22;1482;51.398;7.128;2022-10-12T01:45:28;8.00;1.00
2945;DHT22;1482;51.398;7.128;2022-10-12T01:47:54;7.90;1.00
2945;DHT22;1482;51.398;7.128;2022-10-12T01:50:21;8.00;1.00
2945;DHT22;1482;51.398;7.128;2022-10-12T02:00:39;7.90;1.00
2945;DHT22;1482;51.398;7.128;2022-10-12T02:03:19;7.90;1.00
2945;DHT22;1482;51.398;7.128;2022-10-12T02:06:03;7.90;1.00
2945;DHT22;1482;51.398;7.128;2022-10-12T02:08:32;7.80;1.00
2945;DHT22;1482;51.398;7.128;2022-10-12T02:11:10;7.70;6.00
2945;DHT22;1482;51.398;7.128;2022-10-12T02:14:14;7.70;14.40
2945;DHT22;1482;51.398;7.128;2022-10-12T02:16:46;7.70;16.80
2945;DHT22;1482;51.398;7.128;2022-10-12T02:19:17;7.70;19.50
2945;DHT22;1482;51.398;7.128;2022-10-12T02:21:46;7.70;12.40
2945;DHT22;1482;51.398;7.128;2022-10-12T02:24:14;7.70;8.10
2945;DHT22;1482;51.398;7.128;2022-10-12T02:26:43;7.70;11.70
2945;DHT22;1482;51.398;7.128;2022-10-12T02:29:13;7.70;9.80
2945;DHT22;1482;51.398;7.128;2022-10-12T02:31:51;7.70;10.60
2945;DHT22;1482;51.398;7.128;2022-10-12T02:34:35;7.70;13.90
2945;DHT22;1482;51.398;7.128;2022-10-12T02:39:31;7.70;18.80
2945;DHT22;1482;51.398;7.128;2022-10-12T02:42:08;7.70;22.90
2945;DHT22;1482;51.398;7.128;2022-10-12T02:44:38;7.70;29.10
2945;DHT22;1482;51.398;7.128;2022-10-12T02:47:06;7.60;28.80
2945;DHT22;1482;51.398;7.128;2022-10-12T02:49:34;7.70;37.50
2945;DHT22;1482;51.398;7.128;2022-10-12T02:52:02;7.70;44.60
2945;DHT22;1482;51.398;7.128;2022-10-12T02:54:31;7.70;39.70
2945;DHT22;1482;51.398;7.128;2022-10-12T02:56:57;7.60;46.80
2945;DHT22;1482;51.398;7.128;2022-10-12T02:59:23;7.70;47.00
2945;DHT22;1482;51.398;7.128;2022-10-12T03:01:48;7.50;46.50
2945;DHT22;1482;51.398;7.128;2022-10-12T03:04:14;7.50;63.40
2945;DHT22;1482;51.398;7.128;2022-10-12T03:06:40;7.50;74.30
2945;DHT22;1482;51.398;7.128;2022-10-12T03:09:07;7.50;57.10
2945;DHT22;1482;51.398;7.128;2022-10-12T03:11:33;7.50;52.80
2945;DHT22;1482;51.398;7.128;2022-10-12T03:13:58;7.60;46.60
2945;DHT22;1482;51.398;7.128;2022-10-12T03:16:24;7.60;44.90
2945;DHT22;1482;51.398;7.128;2022-10-12T03:18:51;7.50;49.00
2945;DHT22;1482;51.398;7.128;2022-10-12T03:21:16;7.50;42.80
2945;DHT22;1482;51.398;7.128;2022-10-12T03:23:42;7.50;41.90
2945;DHT22;1482;51.398;7.128;2022-10-12T03:26:08;7.50;34.90
2945;DHT22;1482;51.398;7.128;2022-10-12T03:28:34;7.50;29.00
2945;DHT22;1482;51.398;7.128;2022-10-12T03:30:59;7.50;33.00
2945;DHT22;1482;51.398;7.128;2022-10-12T03:33:25;7.50;34.80
2945;DHT22;1482;51.398;7.128;2022-10-12T03:35:51;7.50;42.30
2945;DHT22;1482;51.398;7.128;2022-10-12T03:38:18;7.50;47.50
2945;DHT22;1482;51.398;7.128;2022-10-12T03:40:44;7.40;55.10
2945;DHT22;1482;51.398;7.128;2022-10-12T03:43:11;7.40;65.40
2945;DHT22;1482;51.398;7.128;2022-10-12T03:45:37;7.30;71.20
2945;DHT22;1482;51.398;7.128;2022-10-12T03:48:04;7.30;80.60
2945;DHT22;1482;51.398;7.128;2022-10-12T03:50:29;7.40;62.30
2945;DHT22;1482;51.398;7.128;2022-10-12T03:52:55;7.40;55.00
2945;DHT22;1482;51.398;7.128;2022-10-12T03:55:20;7.40;50.50
2945;DHT22;1482;51.398;7.128;2022-10-12T03:57:48;7.40;52.20
2945;DHT22;1482;51.398;7.128;2022-10-12T04:00:14;7.40;57.80
2945;DHT22;1482;51.398;7.128;2022-10-12T04:02:39;7.40;56.10
2945;DHT22;1482;51.398;7.128;2022-10-12T04:05:05;7.40;55.20
2945;DHT22;1482;51.398;7.128;2022-10-12T04:07:31;7.40;54.10
2945;DHT22;1482;51.398;7.128;2022-10-12T04:09:56;7.40;54.70
2945;DHT22;1482;51.398;7.128;2022-10-12T04:12:22;7.40;55.40
2945;DHT22;1482;51.398;7.128;2022-10-12T04:14:48;7.30;64.20
2945;DHT22;1482;51.398;7.128;2022-10-12T04:17:17;7.30;72.80
2945;DHT22;1482;51.398;7.128;2022-10-12T04:19:43;7.30;78.10
2945;DHT22;1482;51.398;7.128;2022-10-12T04:22:08;7.30;80.90
2945;DHT22;1482;51.398;7.128;2022-10-12T04:24:34;7.30;93.30
2945;DHT22;1482;51.398;7.128;2022-10-12T04:26:59;7.30;90.80
2945;DHT22;1482;51.398;7.128;2022-10-12T04:29:25;7.20;99.90
2945;DHT22;1482;51.398;7.128;2022-10-12T04:31:50;7.20;99.90
2945;DHT22;1482;51.398;7.128;2022-10-12T04:34:16;7.20;99.90
2945;DHT22;1482;51.398;7.128;2022-10-12T04:36:41;7.20;99.90
2945;DHT22;1482;51.398;7.128;2022-10-12T04:39:07;7.20;99.90
2945;DHT22;1482;51.398;7.128;2022-10-12T04:41:33;7.40;99.90
2945;DHT22;1482;51.398;7.128;2022-10-12T04:43:58;7.40;99.90
2945;DHT22;1482;51.398;7.128;2022-10-12T04:46:24;7.50;99.90
2945;DHT22;1482;51.398;7.128;2022-10-12T04:48:50;7.60;99.90
2945;DHT22;1482;51.398;7.128;2022-10-12T04:51:16;7.60;99.90
2945;DHT22;1482;51.398;7.128;2022-10-12T04:53:41;7.70;99.90
2945;DHT22;1482;51.398;7.128;2022-10-12T04:56:07;7.60;99.90
2945;DHT22;1482;51.398;7.128;2022-10-12T04:58:32;7.50;99.90
2945;DHT22;1482;51.398;7.128;2022-10-12T05:00:58;7.70;99.90
2945;DHT22;1482;51.398;7.128;2022-10-12T05:03:24;7.80;99.90
2945;DHT22;1482;51.398;7.128;2022-10-12T05:05:50;7.80;92.40
2945;DHT22;1482;51.398;7.128;2022-10-12T05:08:15;7.90;71.70
2945;DHT22;1482;51.398;7.128;2022-10-12T05:10:41;8.00;44.00
2945;DHT22;1482;51.398;7.128;2022-10-12T05:13:07;8.00;41.30
2945;DHT22;1482;51.398;7.128;2022-10-12T05:15:32;8.00;36.60
2945;DHT22;1482;51.398;7.128;2022-10-12T05:17:58;8.10;17.50
2945;DHT22;1482;51.398;7.128;2022-10-12T05:20:24;8.20;9.00
2945;DHT22;1482;51.398;7.128;2022-10-12T05:22:49;8.10;8.40
2945;DHT22;1482;51.398;7.128;2022-10-12T05:25:15;8.10;6.60
2945;DHT22;1482;51.398;7.128;2022-10-12T05:27:41;8.10;12.40
2945;DHT22;1482;51.398;7.128;2022-10-12T05:30:07;8.20;3.20
2945;DHT22;1482;51.398;7.128;2022-10-12T05:32:32;8.10;1.90
2945;DHT22;1482;51.398;7.128;2022-10-12T05:34:58;8.10;5.70
2945;DHT22;1482;51.398;7.128;2022-10-12T05:37:23;8.10;7.80
2945;DHT22;1482;51.398;7.128;2022-10-12T05:39:49;8.10;4.20
2945;DHT22;1482;51.398;7.128;2022-10-12T05:42:16;8.10;1.00
2945;DHT22;1482;51.398;7.128;2022-10-12T05:44:41;8.10;1.00
2945;DHT22;1482;51.398;7.128;2022-10-12T05:47:07;8.10;1.00
2945;DHT22;1482;51.398;7.128;2022-10-12T05:49:32;8.00;1.00
2945;DHT22;1482;51.398;7.128;2022-10-12T05:51:58;8.00;1.00
2945;DHT22;1482;51.398;7.128;2022-10-12T05:54:23;8.00;1.00
2945;DHT22;1482;51.398;7.128;2022-10-12T05:56:49;8.00;1.00
2945;DHT22;1482;51.398;7.128;2022-10-12T05:59:15;7.90;1.00
2945;DHT22;1482;51.398;7.128;2022-10-12T06:01:40;7.90;1.00
2945;DHT22;1482;51.398;7.128;2022-10-12T06:04:06;7.90;1.00
2945;DHT22;1482;51.398;7.128;2022-10-12T06:06:31;7.90;1.00
2945;DHT22;1482;51.398;7.128;2022-10-12T06:08:57;7.80;1.00
2945;DHT22;1482;51.398;7.128;2022-10-12T06:11:22;7.80;1.00
2945;DHT22;1482;51.398;7.128;2022-10-12T06:13:48;7.80;1.00
2945;DHT22;1482;51.398;7.128;2022-10-12T06:16:14;7.70;17.80
2945;DHT22;1482;51.398;7.128;2022-10-12T06:18:39;7.80;1.00
2945;DHT22;1482;51.398;7.128;2022-10-12T06:21:05;7.80;1.00
2945;DHT22;1482;51.398;7.128;2022-10-12T06:23:31;7.70;1.00
2945;DHT22;1482;51.398;7.128;2022-10-12T06:25:56;7.70;1.00
2945;DHT22;1482;51.398;7.128;2022-10-12T06:28:22;7.60;1.00
2945;DHT22;1482;51.398;7.128;2022-10-12T06:30:55;7.60;1.00
2945;DHT22;1482;51.398;7.128;2022-10-12T06:33:22;7.60;1.00
2945;DHT22;1482;51.398;7.128;2022-10-12T06:35:47;7.60;1.00
2945;DHT22;1482;51.398;7.128;2022-10-12T06:38:13;7.60;1.00
2945;DHT22;1482;51.398;7.128;2022-10-12T06:40:39;7.80;13.50
2945;DHT22;1482;51.398;7.128;2022-10-12T06:43:04;8.00;46.70
2945;DHT22;1482;51.398;7.128;2022-10-12T06:45:30;8.40;98.80
2945;DHT22;1482;51.398;7.128;2022-10-12T06:47:56;8.90;99.90
2945;DHT22;1482;51.398;7.128;2022-10-12T06:50:22;9.40;99.90
2945;DHT22;1482;51.398;7.128;2022-10-12T06:52:48;9.90;35.10
2945;DHT22;1482;51.398;7.128;2022-10-12T06:55:13;10.60;7.10
2945;DHT22;1482;51.398;7.128;2022-10-12T06:57:39;12.70;1.00
2945;DHT22;1482;51.398;7.128;2022-10-12T07:00:06;15.90;1.00
2945;DHT22;1482;51.398;7.128;2022-10-12T07:02:32;19.20;1.00
2945;DHT22;1482;51.398;7.128;2022-10-12T07:04:58;22.20;1.00
2945;DHT22;1482;51.398;7.128;2022-10-12T07:07:24;24.80;1.00
2945;DHT22;1482;51.398;7.128;2022-10-12T07:09:50;26.00;1.00
2945;DHT22;1482;51.398;7.128;2022-10-12T07:12:16;27.50;1.00
2945;DHT22;1482;51.398;7.128;2022-10-12T07:14:42;29.30;1.00
2945;DHT22;1482;51.398;7.128;2022-10-12T07:17:07;30.70;1.00
2945;DHT22;1482;51.398;7.128;2022-10-12T07:19:33;30.70;1.00
2945;DHT22;1482;51.398;7.128;2022-10-12T07:21:59;31.70;1.00
2945;DHT22;1482;51.398;7.128;2022-10-12T07:24:25;33.00;1.00
2945;DHT22;1482;51.398;7.128;2022-10-12T07:26:59;34.30;1.00
2945;DHT22;1482;51.398;7.128;2022-10-12T07:29:24;34.90;1.00
2945;DHT22;1482;51.398;7.128;2022-10-12T07:31:50;35.70;1.00
2945;DHT22;1482;51.398;7.128;2022-10-12T07:34:17;36.60;1.00
2945;DHT22;1482;51.398;7.128;2022-10-12T07:36:43;37.40;1.00
2945;DHT22;1482;51.398;7.128;2022-10-12T07:39:09;38.20;1.00
2945;DHT22;1482;51.398;7.128;2022-10-12T07:41:35;38.50;1.00
2945;DHT22;1482;51.398;7.128;2022-10-12T07:44:01;39.10;1.00
2945;DHT22;1482;51.398;7.128;2022-10-12T07:46:26;39.60;1.00
2945;DHT22;1482;51.398;7.128;2022-10-12T07:48:52;39.90;1.00
2945;DHT22;1482;51.398;7.128;2022-10-12T07:51:18;40.10;1.00
2945;DHT22;1482;51.398;7.128;2022-10-12T07:53:44;39.60;1.00
2945;DHT22;1482;51.398;7.128;2022-10-12T07:56:11;39.50;1.00
2945;DHT22;1482;51.398;7.128;2022-10-12T07:58:40;39.70;1.00
2945;DHT22;1482;51.398;7.128;2022-10-12T08:01:07;39.60;1.00
2945;DHT22;1482;51.398;7.128;2022-10-12T08:03:34;39.70;1.00
2945;DHT22;1482;51.398;7.128;2022-10-12T08:06:10;40.20;1.00
2945;DHT22;1482;51.398;7.128;2022-10-12T08:08:36;40.00;1.00
2945;DHT22;1482;51.398;7.128;2022-10-12T08:11:02;39.40;1.00
2945;DHT22;1482;51.398;7.128;2022-10-12T08:13:29;37.70;1.00
2945;DHT22;1482;51.398;7.128;2022-10-12T08:15:54;36.40;1.00
2945;DHT22;1482;51.398;7.128;2022-10-12T08:18:20;35.40;1.00
2945;DHT22;1482;51.398;7.128;2022-10-12T08:20:45;34.30;1.00
2945;DHT22;1482;51.398;7.128;2022-10-12T08:23:11;33.20;1.00
2945;DHT22;1482;51.398;7.128;2022-10-12T08:25:36;32.40;1.00
2945;DHT22;1482;51.398;7.128;2022-10-12T08:28:03;32.60;1.00
2945;DHT22;1482;51.398;7.128;2022-10-12T08:30:29;33.80;1.00
2945;DHT22;1482;51.398;7.128;2022-10-12T08:32:54;34.80;1.00
2945;DHT22;1482;51.398;7.128;2022-10-12T08:35:20;35.70;1.00
2945;DHT22;1482;51.398;7.128;2022-10-12T08:37:46;36.50;1.00
2945;DHT22;1482;51.398;7.128;2022-10-12T08:40:31;36.50;1.00
2945;DHT22;1482;51.398;7.128;2022-10-12T08:43:15;35.10;1.00
2945;DHT22;1482;51.398;7.128;2022-10-12T08:48:23;32.60;1.00
2945;DHT22;1482;51.398;7.128;2022-10-12T08:51:01;32.80;1.00
2945;DHT22;1482;51.398;7.128;2022-10-12T08:53:32;32.60;1.00
2945;DHT22;1482;51.398;7.128;2022-10-12T08:55:59;32.60;1.00
2945;DHT22;1482;51.398;7.128;2022-10-12T08:58:34;31.70;1.00
2945;DHT22;1482;51.398;7.128;2022-10-12T09:06:48;29.40;1.00
2945;DHT22;1482;51.398;7.128;2022-10-12T09:09:28;29.00;1.00
2945;DHT22;1482;51.398;7.128;2022-10-12T09:12:13;28.70;1.00
2945;DHT22;1482;51.398;7.128;2022-10-12T09:14:42;28.90;1.00
2945;DHT22;1482;51.398;7.128;2022-10-12T09:22:51;31.10;1.00
2945;DHT22;1482;51.398;7.128;2022-10-12T09:25:21;32.50;1.00
2945;DHT22;1482;51.398;7.128;2022-10-12T09:27:48;33.60;1.00
2945;DHT22;1482;51.398;7.128;2022-10-12T09:30:15;34.20;1.00
2945;DHT22;1482;51.398;7.128;2022-10-12T09:33:13;35.10;1.00
2945;DHT22;1482;51.398;7.128;2022-10-12T09:35:44;36.30;1.00
2945;DHT22;1482;51.398;7.128;2022-10-12T09:38:11;36.60;1.00
2945;DHT22;1482;51.398;7.128;2022-10-12T09:40:37;37.00;1.00
2945;DHT22;1482;51.398;7.128;2022-10-12T09:43:04;35.80;1.00
2945;DHT22;1482;51.398;7.128;2022-10-12T09:45:32;34.00;1.00
2945;DHT22;1482;51.398;7.128;2022-10-12T09:48:09;31.80;1.00
2945;DHT22;1482;51.398;7.128;2022-10-12T09:50:59;29.60;1.00
2945;DHT22;1482;51.398;7.128;2022-10-12T09:53:29;27.90;1.00
2945;DHT22;1482;51.398;7.128;2022-10-12T09:56:06;26.60;1.00
2945;DHT22;1482;51.398;7.128;2022-10-12T09:58:53;25.50;1.00
2945;DHT22;1482;51.398;7.128;2022-10-12T10:01:28;25.00;1.00
2945;DHT22;1482;51.398;7.128;2022-10-12T10:04:15;24.70;1.00
2945;DHT22;1482;51.398;7.128;2022-10-12T10:06:43;24.10;1.00
2945;DHT22;1482;51.398;7.128;2022-10-12T10:09:31;23.80;1.00
2945;DHT22;1482;51.398;7.128;2022-10-12T10:12:11;23.50;1.00
2945;DHT22;1482;51.398;7.128;2022-10-12T10:14:37;23.30;1.00
2945;DHT22;1482;51.398;7.128;2022-10-12T10:17:03;23.10;1.00
2945;DHT22;1482;51.398;7.128;2022-10-12T10:19:29;22.90;1.00
2945;DHT22;1482;51.398;7.128;2022-10-12T10:21:54;22.80;1.00
2945;DHT22;1482;51.398;7.128;2022-10-12T10:24:29;22.70;1.00
2945;DHT22;1482;51.398;7.128;2022-10-12T10:27:03;22.80;1.00
2945;DHT22;1482;51.398;7.128;2022-10-12T10:29:39;22.50;1.00
2945;DHT22;1482;51.398;7.128;2022-10-12T10:32:17;22.20;1.00
2945;DHT22;1482;51.398;7.128;2022-10-12T10:35:25;21.90;1.00
2945;DHT22;1482;51.398;7.128;2022-10-12T10:37:53;21.50;1.00
2945;DHT22;1482;51.398;7.128;2022-10-12T10:40:24;21.40;1.00
2945;DHT22;1482;51.398;7.128;2022-10-12T10:42:53;21.10;1.00
2945;DHT22;1482;51.398;7.128;2022-10-12T10:45:25;21.10;1.00
2945;DHT22;1482;51.398;7.128;2022-10-12T10:47:52;21.00;1.00
2945;DHT22;1482;51.398;7.128;2022-10-12T10:50:31;20.90;1.00
2945;DHT22;1482;51.398;7.128;2022-10-12T10:53:00;20.80;1.00
2945;DHT22;1482;51.398;7.128;2022-10-12T10:55:51;20.90;1.00
2945;DHT22;1482;51.398;7.128;2022-10-12T10:58:38;20.70;1.00
2945;DHT22;1482;51.398;7.128;2022-10-12T11:03:59;20.80;1.00
2945;DHT22;1482;51.398;7.128;2022-10-12T11:06:49;20.70;1.00
2945;DHT22;1482;51.398;7.128;2022-10-12T11:09:20;20.60;1.00
2945;DHT22;1482;51.398;7.128;2022-10-12T11:12:13;20.60;1.00
2945;DHT22;1482;51.398;7.128;2022-10-12T11:15:10;20.80;1.00
2945;DHT22;1482;51.398;7.128;2022-10-12T11:17:41;20.80;1.00
2945;DHT22;1482;51.398;7.128;2022-10-12T11:20:45;20.80;1.00
2945;DHT22;1482;51.398;7.128;2022-10-12T11:25:54;20.60;1.00
2945;DHT22;1482;51.398;7.128;2022-10-12T11:28:25;20.40;1.00
2945;DHT22;1482;51.398;7.128;2022-10-12T11:30:53;20.30;1.00
2945;DHT22;1482;51.398;7.128;2022-10-12T11:33:34;20.10;1.00
2945;DHT22;1482;51.398;7.128;2022-10-12T11:36:10;20.00;1.00
2945;DHT22;1482;51.398;7.128;2022-10-12T11:38:42;20.10;1.00
2945;DHT22;1482;51.398;7.128;2022-10-12T11:41:13;20.20;1.00
2945;DHT22;1482;51.398;7.128;2022-10-12T11:43:51;20.10;1.00
2945;DHT22;1482;51.398;7.128;2022-10-12T11:46:29;20.20;1.00
2945;DHT22;1482;51.398;7.128;2022-10-12T11:49:11;20.30;1.00
2945;DHT22;1482;51.398;7.128;2022-10-12T11:51:39;20.40;1.00
2945;DHT22;1482;51.398;7.128;2022-10-12T11:54:26;20.20;1.00
2945;DHT22;1482;51.398;7.128;2022-10-12T11:56:59;20.10;1.00
2945;DHT22;1482;51.398;7.128;2022-10-12T11:59:36;20.10;1.00
2945;DHT22;1482;51.398;7.128;2022-10-12T12:04:43;19.90;1.00
2945;DHT22;1482;51.398;7.128;2022-10-12T12:09:48;20.10;1.00
2945;DHT22;1482;51.398;7.128;2022-10-12T12:12:24;20.10;1.00
2945;DHT22;1482;51.398;7.128;2022-10-12T12:19:45;20.60;1.00
2945;DHT22;1482;51.398;7.128;2022-10-12T12:24:51;20.50;1.00
2945;DHT22;1482;51.398;7.128;2022-10-12T12:27:21;20.50;1.00
2945;DHT22;1482;51.398;7.128;2022-10-12T12:29:51;20.40;1.00
2945;DHT22;1482;51.398;7.128;2022-10-12T12:32:18;20.30;1.00
2945;DHT22;1482;51.398;7.128;2022-10-12T12:34:53;20.30;1.00
2945;DHT22;1482;51.398;7.128;2022-10-12T12:37:21;20.30;1.00
2945;DHT22;1482;51.398;7.128;2022-10-12T12:39:53;20.50;1.00
2945;DHT22;1482;51.398;7.128;2022-10-12T12:42:23;20.70;1.00
2945;DHT22;1482;51.398;7.128;2022-10-12T12:44:49;20.70;1.00
2945;DHT22;1482;51.398;7.128;2022-10-12T12:47:18;20.60;1.00
2945;DHT22;1482;51.398;7.128;2022-10-12T12:49:53;20.50;1.00
2945;DHT22;1482;51.398;7.128;2022-10-12T13:00:23;19.50;1.00
2945;DHT22;1482;51.398;7.128;2022-10-12T13:11:02;19.50;1.00
2945;DHT22;1482;51.398;7.128;2022-10-12T13:19:14;19.50;1.00
2945;DHT22;1482;51.398;7.128;2022-10-12T13:21:46;19.50;1.00
2945;DHT22;1482;51.398;7.128;2022-10-12T13:25:10;19.50;1.00
2945;DHT22;1482;51.398;7.128;2022-10-12T13:27:24;19.50;1.00
2945;DHT22;1482;51.398;7.128;2022-10-12T13:33:37;19.20;1.00
2945;DHT22;1482;51.398;7.128;2022-10-12T13:38:46;18.90;1.00
2945;DHT22;1482;51.398;7.128;2022-10-12T13:41:15;19.00;1.00
2945;DHT22;1482;51.398;7.128;2022-10-12T13:46:36;19.00;1.00
2945;DHT22;1482;51.398;7.128;2022-10-12T13:51:37;19.00;1.00
2945;DHT22;1482;51.398;7.128;2022-10-12T13:54:23;18.90;1.00
2945;DHT22;1482;51.398;7.128;2022-10-12T13:56:53;18.80;1.00
2945;DHT22;1482;51.398;7.128;2022-10-12T13:59:22;18.80;1.00
2945;DHT22;1482;51.398;7.128;2022-10-12T14:01:50;18.90;1.00
2945;DHT22;1482;51.398;7.128;2022-10-12T14:04:16;19.00;1.00
2945;DHT22;1482;51.398;7.128;2022-10-12T14:06:46;19.00;1.00
2945;DHT22;1482;51.398;7.128;2022-10-12T14:09:20;18.90;1.00
2945;DHT22;1482;51.398;7.128;2022-10-12T14:11:49;19.00;1.00
2945;DHT22;1482;51.398;7.128;2022-10-12T14:14:30;18.90;1.00
2945;DHT22;1482;51.398;7.128;2022-10-12T14:16:56;19.00;1.00
2945;DHT22;1482;51.398;7.128;2022-10-12T14:19:42;19.10;1.00
2945;DHT22;1482;51.398;7.128;2022-10-12T14:22:10;19.00;1.00
2945;DHT22;1482;51.398;7.128;2022-10-12T14:24:36;19.10;1.00
2945;DHT22;1482;51.398;7.128;2022-10-12T14:27:04;18.80;1.00
2945;DHT22;1482;51.398;7.128;2022-10-12T14:29:43;18.70;1.00
2945;DHT22;1482;51.398;7.128;2022-10-12T14:39:37;18.30;1.00
2945;DHT22;1482;51.398;7.128;2022-10-12T14:42:18;18.20;1.00
2945;DHT22;1482;51.398;7.128;2022-10-12T14:44:43;17.90;1.00
2945;DHT22;1482;51.398;7.128;2022-10-12T14:47:21;17.90;1.00
2945;DHT22;1482;51.398;7.128;2022-10-12T14:49:49;17.90;1.00
2945;DHT22;1482;51.398;7.128;2022-10-12T14:52:27;17.90;1.00
2945;DHT22;1482;51.398;7.128;2022-10-12T14:54:57;18.00;1.00
2945;DHT22;1482;51.398;7.128;2022-10-12T14:57:24;17.90;1.00
2945;DHT22;1482;51.398;7.128;2022-10-12T14:59:51;17.90;1.00
2945;DHT22;1482;51.398;7.128;2022-10-12T15:04:45;17.90;1.00
2945;DHT22;1482;51.398;7.128;2022-10-12T15:07:18;18.00;1.00
2945;DHT22;1482;51.398;7.128;2022-10-12T15:09:45;18.00;1.00
2945;DHT22;1482;51.398;7.128;2022-10-12T15:12:12;18.00;1.00
2945;DHT22;1482;51.398;7.128;2022-10-12T15:14:39;17.90;1.00
2945;DHT22;1482;51.398;7.128;2022-10-12T15:17:05;17.80;1.00
2945;DHT22;1482;51.398;7.128;2022-10-12T15:19:31;17.70;1.00
2945;DHT22;1482;51.398;7.128;2022-10-12T15:21:56;17.60;1.00
2945;DHT22;1482;51.398;7.128;2022-10-12T15:24:22;17.50;1.00
2945;DHT22;1482;51.398;7.128;2022-10-12T15:26:47;17.40;1.00
2945;DHT22;1482;51.398;7.128;2022-10-12T15:29:13;17.40;1.00
2945;DHT22;1482;51.398;7.128;2022-10-12T15:31:38;17.40;1.00
2945;DHT22;1482;51.398;7.128;2022-10-12T15:34:10;17.30;1.00
2945;DHT22;1482;51.398;7.128;2022-10-12T15:36:36;17.20;1.00
2945;DHT22;1482;51.398;7.128;2022-10-12T15:39:02;17.10;1.00
2945;DHT22;1482;51.398;7.128;2022-10-12T15:41:27;17.10;1.00
2945;DHT22;1482;51.398;7.128;2022-10-12T15:43:53;17.00;1.00
2945;DHT22;1482;51.398;7.128;2022-10-12T15:46:18;16.90;1.00
2945;DHT22;1482;51.398;7.128;2022-10-12T15:48:44;16.90;1.00
2945;DHT22;1482;51.398;7.128;2022-10-12T15:51:18;16.90;1.00
2945;DHT22;1482;51.398;7.128;2022-10-12T15:53:45;16.80;1.00
2945;DHT22;1482;51.398;7.128;2022-10-12T15:56:12;16.70;1.00
2945;DHT22;1482;51.398;7.128;2022-10-12T15:58:38;16.60;1.00
2945;DHT22;1482;51.398;7.128;2022-10-12T16:01:04;16.60;1.00
2945;DHT22;1482;51.398;7.128;2022-10-12T16:03:29;16.50;1.00
2945;DHT22;1482;51.398;7.128;2022-10-12T16:05:57;16.50;1.00
2945;DHT22;1482;51.398;7.128;2022-10-12T16:08:23;16.30;1.00
2945;DHT22;1482;51.398;7.128;2022-10-12T16:10:48;16.10;1.00
2945;DHT22;1482;51.398;7.128;2022-10-12T16:13:15;16.10;1.00
2945;DHT22;1482;51.398;7.128;2022-10-12T16:15:41;16.00;1.00
2945;DHT22;1482;51.398;7.128;2022-10-12T16:18:07;16.00;1.00
2945;DHT22;1482;51.398;7.128;2022-10-12T16:20:35;15.90;1.00
2945;DHT22;1482;51.398;7.128;2022-10-12T16:23:03;15.90;1.00
2945;DHT22;1482;51.398;7.128;2022-10-12T16:25:29;15.90;1.00
2945;DHT22;1482;51.398;7.128;2022-10-12T16:27:56;15.80;1.00
2945;DHT22;1482;51.398;7.128;2022-10-12T16:30:22;15.80;1.00
2945;DHT22;1482;51.398;7.128;2022-10-12T16:32:49;15.60;1.00
2945;DHT22;1482;51.398;7.128;2022-10-12T16:35:18;15.50;1.00
2945;DHT22;1482;51.398;7.128;2022-10-12T16:37:43;15.40;1.00
2945;DHT22;1482;51.398;7.128;2022-10-12T16:40:09;15.40;1.00
2945;DHT22;1482;51.398;7.128;2022-10-12T16:42:35;15.30;1.00
2945;DHT22;1482;51.398;7.128;2022-10-12T16:45:01;15.30;1.00
2945;DHT22;1482;51.398;7.128;2022-10-12T16:47:26;15.20;1.00
2945;DHT22;1482;51.398;7.128;2022-10-12T16:49:53;15.10;1.00
2945;DHT22;1482;51.398;7.128;2022-10-12T16:52:20;15.00;1.00
2945;DHT22;1482;51.398;7.128;2022-10-12T16:54:52;15.00;1.00
2945;DHT22;1482;51.398;7.128;2022-10-12T16:57:17;14.90;1.00
2945;DHT22;1482;51.398;7.128;2022-10-12T16:59:43;14.90;1.00
2945;DHT22;1482;51.398;7.128;2022-10-12T17:02:11;14.80;1.00
2945;DHT22;1482;51.398;7.128;2022-10-12T17:04:37;14.70;1.00
2945;DHT22;1482;51.398;7.128;2022-10-12T17:07:03;14.60;1.00
2945;DHT22;1482;51.398;7.128;2022-10-12T17:09:28;14.60;1.00
2945;DHT22;1482;51.398;7.128;2022-10-12T17:11:55;14.60;1.00
2945;DHT22;1482;51.398;7.128;2022-10-12T17:14:21;14.60;1.00
2945;DHT22;1482;51.398;7.128;2022-10-12T17:16:47;14.50;1.00
2945;DHT22;1482;51.398;7.128;2022-10-12T17:19:18;14.50;1.00
2945;DHT22;1482;51.398;7.128;2022-10-12T17:21:44;14.50;1.00
2945;DHT22;1482;51.398;7.128;2022-10-12T17:24:16;14.40;1.00
2945;DHT22;1482;51.398;7.128;2022-10-12T17:26:50;14.30;1.00
2945;DHT22;1482;51.398;7.128;2022-10-12T17:29:17;14.20;1.00
2945;DHT22;1482;51.398;7.128;2022-10-12T17:31:43;14.10;1.00
2945;DHT22;1482;51.398;7.128;2022-10-12T17:34:30;14.00;1.00
2945;DHT22;1482;51.398;7.128;2022-10-12T17:36:57;14.00;1.00
2945;DHT22;1482;51.398;7.128;2022-10-12T17:39:25;13.90;1.00
2945;DHT22;1482;51.398;7.128;2022-10-12T17:41:51;13.90;1.00
2945;DHT22;1482;51.398;7.128;2022-10-12T17:44:16;13.90;1.00
2945;DHT22;1482;51.398;7.128;2022-10-12T17:46:43;13.80;1.00
2945;DHT22;1482;51.398;7.128;2022-10-12T17:49:13;13.80;1.00
2945;DHT22;1482;51.398;7.128;2022-10-12T17:51:40;13.70;1.00
2945;DHT22;1482;51.398;7.128;2022-10-12T17:54:06;13.70;1.00
2945;DHT22;1482;51.398;7.128;2022-10-12T17:56:31;13.60;1.00
2945;DHT22;1482;51.398;7.128;2022-10-12T17:58:59;13.60;1.00
2945;DHT22;1482;51.398;7.128;2022-10-12T18:01:29;13.60;1.00
2945;DHT22;1482;51.398;7.128;2022-10-12T18:03:57;13.70;1.00
2945;DHT22;1482;51.398;7.128;2022-10-12T18:06:23;13.70;1.00
2945;DHT22;1482;51.398;7.128;2022-10-12T18:08:50;13.60;1.00
2945;DHT22;1482;51.398;7.128;2022-10-12T18:11:18;13.60;1.00
2945;DHT22;1482;51.398;7.128;2022-10-12T18:13:46;13.60;1.00
2945;DHT22;1482;51.398;7.128;2022-10-12T18:16:12;13.60;1.00